sensor_id;sensor_type;location;lat;lon;timestamp;temperature;humidity
11107;DHT22;5607;48.302;14.294;2023-05-07T00:02:41;15.20;1.00
11107;DHT22;5607;48.302;14.294;2023-05-07T00:05:28;15.20;1.00
11107;DHT22;5607;48.302;14.294;2023-05-07T00:08:15;15.20;1.00
11107;DHT22;5607;48.302;14.294;2023-05-07T00:11:01;15.20;1.00
11107;DHT22;5607;48.302;14.294;2023-05-07T00:13:47;15.20;1.00
11107;DHT22;5607;48.302;14.294;2023-05-07T00:16:33;15.20;1.00
11107;DHT22;5607;48.302;14.294;2023-05-07T00:19:20;15.20;1.00
11107;DHT22;5607;48.302;14.294;2023-05-07T00:22:07;15.10;1.00
11107;DHT22;5607;48.302;14.294;2023-05-07T00:24:53;15.20;1.00
11107;DHT22;5607;48.302;14.294;2023-05-07T00:27:40;15.20;1.00
11107;DHT22;5607;48.302;14.294;2023-05-07T00:30:27;15.20;1.00
11107;DHT22;5607;48.302;14.294;2023-05-07T00:33:13;15.10;1.00
11107;DHT22;5607;48.302;14.294;2023-05-07T00:36:00;15.20;1.00
11107;DHT22;5607;48.302;14.294;2023-05-07T00:38:47;15.30;1.00
11107;DHT22;5607;48.302;14.294;2023-05-07T00:41:34;15.50;1.00
11107;DHT22;5607;48.302;14.294;2023-05-07T00:44:20;15.50;1.00
11107;DHT22;5607;48.302;14.294;2023-05-07T00:47:06;15.50;1.00
11107;DHT22;5607;48.302;14.294;2023-05-07T00:49:53;15.40;1.00
11107;DHT22;5607;48.302;14.294;2023-05-07T00:52:41;15.30;99.90
11107;DHT22;5607;48.302;14.294;2023-05-07T00:55:28;15.20;1.40
11107;DHT22;5607;48.302;14.294;2023-05-07T00:58:15;15.20;1.00
11107;DHT22;5607;48.302;14.294;2023-05-07T01:01:01;15.10;1.00
11107;DHT22;5607;48.302;14.294;2023-05-07T01:03:48;15.00;1.00
11107;DHT22;5607;48.302;14.294;2023-05-07T01:06:34;15.00;1.00
11107;DHT22;5607;48.302;14.294;2023-05-07T01:09:20;15.00;1.00
11107;DHT22;5607;48.302;14.294;2023-05-07T01:12:07;14.90;1.00
11107;DHT22;5607;48.302;14.294;2023-05-07T01:14:54;15.00;1.00
11107;DHT22;5607;48.302;14.294;2023-05-07T01:17:41;15.00;1.00
11107;DHT22;5607;48.302;14.294;2023-05-07T01:20:27;14.90;1.00
11107;DHT22;5607;48.302;14.294;2023-05-07T01:23:14;14.90;1.00
11107;DHT22;5607;48.302;14.294;2023-05-07T01:26:01;14.80;1.00
11107;DHT22;5607;48.302;14.294;2023-05-07T01:28:47;14.80;1.00
11107;DHT22;5607;48.302;14.294;2023-05-07T01:31:34;14.90;1.00
11107;DHT22;5607;48.302;14.294;2023-05-07T01:34:20;14.90;1.00
11107;DHT22;5607;48.302;14.294;2023-05-07T01:37:07;14.90;1.00
11107;DHT22;5607;48.302;14.294;2023-05-07T01:39:54;14.90;1.00
11107;DHT22;5607;48.302;14.294;2023-05-07T01:42:41;14.90;1.00
11107;DHT22;5607;48.302;14.294;2023-05-07T01:45:30;14.90;1.00
11107;DHT22;5607;48.302;14.294;2023-05-07T01:48:16;14.80;1.00
11107;DHT22;5607;48.302;14.294;2023-05-07T01:51:03;14.80;1.00
11107;DHT22;5607;48.302;14.294;2023-05-07T01:53:51;14.80;1.00
11107;DHT22;5607;48.302;14.294;2023-05-07T01:56:38;14.70;1.00
11107;DHT22;5607;48.302;14.294;2023-05-07T01:59:24;14.70;1.00
11107;DHT22;5607;48.302;14.294;2023-05-07T02:02:10;14.80;1.00
11107;DHT22;5607;48.302;14.294;2023-05-07T02:04:57;14.70;1.00
11107;DHT22;5607;48.302;14.294;2023-05-07T02:07:43;14.80;1.00
11107;DHT22;5607;48.302;14.294;2023-05-07T02:10:29;14.80;1.00
11107;DHT22;5607;48.302;14.294;2023-05-07T02:13:15;14.80;1.00
11107;DHT22;5607;48.302;14.294;2023-05-07T02:16:02;14.80;1.00
11107;DHT22;5607;48.302;14.294;2023-05-07T02:18:48;14.90;1.00
11107;DHT22;5607;48.302;14.294;2023-05-07T02:21:34;14.80;1.00
11107;DHT22;5607;48.302;14.294;2023-05-07T02:24:21;14.90;1.00
11107;DHT22;5607;48.302;14.294;2023-05-07T02:27:07;14.90;1.00
11107;DHT22;5607;48.302;14.294;2023-05-07T02:29:53;14.80;1.00
11107;DHT22;5607;48.302;14.294;2023-05-07T02:32:40;14.90;1.00
11107;DHT22;5607;48.302;14.294;2023-05-07T02:35:26;14.90;1.00
11107;DHT22;5607;48.302;14.294;2023-05-07T02:38:12;14.90;1.00
11107;DHT22;5607;48.302;14.294;2023-05-07T02:40:58;14.90;1.00
11107;DHT22;5607;48.302;14.294;2023-05-07T02:43:44;15.00;1.00
11107;DHT22;5607;48.302;14.294;2023-05-07T02:46:31;14.90;1.00
11107;DHT22;5607;48.302;14.294;2023-05-07T02:49:17;14.90;1.00
11107;DHT22;5607;48.302;14.294;2023-05-07T02:52:03;14.90;1.00
11107;DHT22;5607;48.302;14.294;2023-05-07T02:54:49;14.90;1.00
11107;DHT22;5607;48.302;14.294;2023-05-07T02:57:36;14.90;1.00
11107;DHT22;5607;48.302;14.294;2023-05-07T03:00:22;14.90;1.00
11107;DHT22;5607;48.302;14.294;2023-05-07T03:03:09;14.90;1.00
11107;DHT22;5607;48.302;14.294;2023-05-07T03:05:55;14.80;1.00
11107;DHT22;5607;48.302;14.294;2023-05-07T03:08:41;14.90;1.00
11107;DHT22;5607;48.302;14.294;2023-05-07T03:11:28;15.00;1.00
11107;DHT22;5607;48.302;14.294;2023-05-07T03:14:14;15.00;1.00
11107;DHT22;5607;48.302;14.294;2023-05-07T03:17:00;15.00;1.00
11107;DHT22;5607;48.302;14.294;2023-05-07T03:19:47;15.00;1.00
11107;DHT22;5607;48.302;14.294;2023-05-07T03:22:33;14.90;1.00
11107;DHT22;5607;48.302;14.294;2023-05-07T03:25:20;14.90;1.00
11107;DHT22;5607;48.302;14.294;2023-05-07T03:28:06;14.90;1.00
11107;DHT22;5607;48.302;14.294;2023-05-07T03:30:52;14.90;1.00
11107;DHT22;5607;48.302;14.294;2023-05-07T03:33:51;14.90;1.00
11107;DHT22;5607;48.302;14.294;2023-05-07T03:36:37;14.90;1.00
11107;DHT22;5607;48.302;14.294;2023-05-07T03:39:24;14.90;1.00
11107;DHT22;5607;48.302;14.294;2023-05-07T03:42:10;14.90;1.00
11107;DHT22;5607;48.302;14.294;2023-05-07T03:44:56;15.00;1.00
11107;DHT22;5607;48.302;14.294;2023-05-07T03:47:44;15.00;1.00
11107;DHT22;5607;48.302;14.294;2023-05-07T03:50:30;15.10;1.00
11107;DHT22;5607;48.302;14.294;2023-05-07T03:53:16;15.20;1.00
11107;DHT22;5607;48.302;14.294;2023-05-07T03:56:04;15.20;1.00
11107;DHT22;5607;48.302;14.294;2023-05-07T03:58:50;15.20;1.00
11107;DHT22;5607;48.302;14.294;2023-05-07T04:01:37;15.20;1.00
11107;DHT22;5607;48.302;14.294;2023-05-07T04:04:23;15.20;1.00
11107;DHT22;5607;48.302;14.294;2023-05-07T04:07:09;15.30;1.00
11107;DHT22;5607;48.302;14.294;2023-05-07T04:09:55;15.30;1.00
11107;DHT22;5607;48.302;14.294;2023-05-07T04:12:42;15.30;1.00
11107;DHT22;5607;48.302;14.294;2023-05-07T04:15:28;15.40;1.00
11107;DHT22;5607;48.302;14.294;2023-05-07T04:18:14;15.40;1.00
11107;DHT22;5607;48.302;14.294;2023-05-07T04:21:01;15.40;1.00
11107;DHT22;5607;48.302;14.294;2023-05-07T04:23:47;15.50;1.00
11107;DHT22;5607;48.302;14.294;2023-05-07T04:26:34;15.50;1.00
11107;DHT22;5607;48.302;14.294;2023-05-07T04:29:20;15.60;1.00
11107;DHT22;5607;48.302;14.294;2023-05-07T04:32:07;15.60;99.90
11107;DHT22;5607;48.302;14.294;2023-05-07T04:34:53;15.70;99.90
11107;DHT22;5607;48.302;14.294;2023-05-07T04:37:39;15.70;99.90
11107;DHT22;5607;48.302;14.294;2023-05-07T04:40:26;15.70;99.90
11107;DHT22;5607;48.302;14.294;2023-05-07T04:43:12;15.80;99.90
11107;DHT22;5607;48.302;14.294;2023-05-07T04:45:59;15.70;99.90
11107;DHT22;5607;48.302;14.294;2023-05-07T04:48:45;15.70;99.90
11107;DHT22;5607;48.302;14.294;2023-05-07T04:51:31;15.80;99.90
11107;DHT22;5607;48.302;14.294;2023-05-07T04:54:18;15.80;99.90
11107;DHT22;5607;48.302;14.294;2023-05-07T04:57:07;15.80;99.90
11107;DHT22;5607;48.302;14.294;2023-05-07T04:59:54;15.70;1.00
11107;DHT22;5607;48.302;14.294;2023-05-07T05:02:41;15.70;1.00
11107;DHT22;5607;48.302;14.294;2023-05-07T05:05:28;15.60;1.00
11107;DHT22;5607;48.302;14.294;2023-05-07T05:08:14;15.70;1.00
11107;DHT22;5607;48.302;14.294;2023-05-07T05:11:01;15.70;1.00
11107;DHT22;5607;48.302;14.294;2023-05-07T05:13:47;15.70;99.90
11107;DHT22;5607;48.302;14.294;2023-05-07T05:16:35;15.80;99.90
11107;DHT22;5607;48.302;14.294;2023-05-07T05:19:21;15.80;1.40
11107;DHT22;5607;48.302;14.294;2023-05-07T05:22:07;15.80;99.90
11107;DHT22;5607;48.302;14.294;2023-05-07T05:24:54;15.80;99.90
11107;DHT22;5607;48.302;14.294;2023-05-07T05:27:40;15.80;99.90
11107;DHT22;5607;48.302;14.294;2023-05-07T05:30:26;15.90;99.90
11107;DHT22;5607;48.302;14.294;2023-05-07T05:33:13;15.90;99.90
11107;DHT22;5607;48.302;14.294;2023-05-07T05:36:00;16.00;99.90
11107;DHT22;5607;48.302;14.294;2023-05-07T05:38:46;16.10;99.90
11107;DHT22;5607;48.302;14.294;2023-05-07T05:41:32;16.10;99.90
11107;DHT22;5607;48.302;14.294;2023-05-07T05:44:18;16.10;99.90
11107;DHT22;5607;48.302;14.294;2023-05-07T05:47:05;16.20;99.90
11107;DHT22;5607;48.302;14.294;2023-05-07T05:49:51;16.20;99.90
11107;DHT22;5607;48.302;14.294;2023-05-07T05:52:38;16.20;99.90
11107;DHT22;5607;48.302;14.294;2023-05-07T05:55:24;16.30;99.90
11107;DHT22;5607;48.302;14.294;2023-05-07T05:58:10;16.40;99.90
11107;DHT22;5607;48.302;14.294;2023-05-07T06:00:57;16.50;99.90
11107;DHT22;5607;48.302;14.294;2023-05-07T06:03:44;16.60;99.90
11107;DHT22;5607;48.302;14.294;2023-05-07T06:06:30;16.60;99.90
11107;DHT22;5607;48.302;14.294;2023-05-07T06:09:17;16.70;99.90
11107;DHT22;5607;48.302;14.294;2023-05-07T06:12:03;16.90;99.90
11107;DHT22;5607;48.302;14.294;2023-05-07T06:14:49;16.90;99.90
11107;DHT22;5607;48.302;14.294;2023-05-07T06:17:36;17.10;99.90
11107;DHT22;5607;48.302;14.294;2023-05-07T06:20:22;17.20;99.90
11107;DHT22;5607;48.302;14.294;2023-05-07T06:23:08;17.30;99.90
11107;DHT22;5607;48.302;14.294;2023-05-07T06:25:54;17.50;99.90
11107;DHT22;5607;48.302;14.294;2023-05-07T06:28:41;17.60;99.90
11107;DHT22;5607;48.302;14.294;2023-05-07T06:31:29;17.70;99.90
11107;DHT22;5607;48.302;14.294;2023-05-07T06:34:16;17.80;99.90
11107;DHT22;5607;48.302;14.294;2023-05-07T06:37:03;17.90;99.90
11107;DHT22;5607;48.302;14.294;2023-05-07T06:39:49;17.90;99.90
11107;DHT22;5607;48.302;14.294;2023-05-07T06:42:36;18.10;99.90
11107;DHT22;5607;48.302;14.294;2023-05-07T06:45:22;18.20;99.90
11107;DHT22;5607;48.302;14.294;2023-05-07T06:48:09;18.20;99.90
11107;DHT22;5607;48.302;14.294;2023-05-07T06:50:56;18.20;99.90
11107;DHT22;5607;48.302;14.294;2023-05-07T06:53:43;18.40;99.90
11107;DHT22;5607;48.302;14.294;2023-05-07T06:56:30;18.50;99.90
11107;DHT22;5607;48.302;14.294;2023-05-07T06:59:16;18.60;99.90
11107;DHT22;5607;48.302;14.294;2023-05-07T07:02:02;18.80;99.90
11107;DHT22;5607;48.302;14.294;2023-05-07T07:04:48;18.90;99.90
11107;DHT22;5607;48.302;14.294;2023-05-07T07:07:35;19.00;99.90
11107;DHT22;5607;48.302;14.294;2023-05-07T07:10:21;19.10;99.90
11107;DHT22;5607;48.302;14.294;2023-05-07T07:13:08;19.20;99.90
11107;DHT22;5607;48.302;14.294;2023-05-07T07:15:54;19.30;99.90
11107;DHT22;5607;48.302;14.294;2023-05-07T07:18:41;19.40;99.90
11107;DHT22;5607;48.302;14.294;2023-05-07T07:21:28;19.50;99.90
11107;DHT22;5607;48.302;14.294;2023-05-07T07:24:14;19.60;99.90
11107;DHT22;5607;48.302;14.294;2023-05-07T07:27:05;19.80;99.90
11107;DHT22;5607;48.302;14.294;2023-05-07T07:29:51;19.90;99.90
11107;DHT22;5607;48.302;14.294;2023-05-07T07:32:37;19.90;99.90
11107;DHT22;5607;48.302;14.294;2023-05-07T07:35:23;20.00;99.90
11107;DHT22;5607;48.302;14.294;2023-05-07T07:38:11;20.10;99.90
11107;DHT22;5607;48.302;14.294;2023-05-07T07:40:59;20.20;99.90
11107;DHT22;5607;48.302;14.294;2023-05-07T07:43:46;20.50;99.90
11107;DHT22;5607;48.302;14.294;2023-05-07T07:46:35;20.70;99.90
11107;DHT22;5607;48.302;14.294;2023-05-07T07:49:21;20.70;99.90
11107;DHT22;5607;48.302;14.294;2023-05-07T07:52:07;20.70;99.90
11107;DHT22;5607;48.302;14.294;2023-05-07T07:54:53;20.80;99.90
11107;DHT22;5607;48.302;14.294;2023-05-07T07:57:39;20.90;99.90
11107;DHT22;5607;48.302;14.294;2023-05-07T08:00:26;21.00;99.90
11107;DHT22;5607;48.302;14.294;2023-05-07T08:03:12;21.10;99.90
11107;DHT22;5607;48.302;14.294;2023-05-07T08:05:58;21.20;99.90
11107;DHT22;5607;48.302;14.294;2023-05-07T08:08:44;21.40;99.90
11107;DHT22;5607;48.302;14.294;2023-05-07T08:11:31;21.30;99.90
11107;DHT22;5607;48.302;14.294;2023-05-07T08:14:17;21.30;99.90
11107;DHT22;5607;48.302;14.294;2023-05-07T08:17:03;21.40;99.90
11107;DHT22;5607;48.302;14.294;2023-05-07T08:19:49;21.50;99.90
11107;DHT22;5607;48.302;14.294;2023-05-07T08:22:36;21.60;99.90
11107;DHT22;5607;48.302;14.294;2023-05-07T08:25:22;21.70;99.90
11107;DHT22;5607;48.302;14.294;2023-05-07T08:28:09;21.90;99.90
11107;DHT22;5607;48.302;14.294;2023-05-07T08:30:55;21.80;99.90
11107;DHT22;5607;48.302;14.294;2023-05-07T08:33:42;21.70;99.90
11107;DHT22;5607;48.302;14.294;2023-05-07T08:36:28;21.60;99.90
11107;DHT22;5607;48.302;14.294;2023-05-07T08:39:15;21.60;99.90
11107;DHT22;5607;48.302;14.294;2023-05-07T08:42:02;21.70;99.90
11107;DHT22;5607;48.302;14.294;2023-05-07T08:44:50;21.60;99.90
11107;DHT22;5607;48.302;14.294;2023-05-07T08:47:50;21.60;99.90
11107;DHT22;5607;48.302;14.294;2023-05-07T08:50:37;21.70;99.90
11107;DHT22;5607;48.302;14.294;2023-05-07T08:53:23;21.70;99.90
11107;DHT22;5607;48.302;14.294;2023-05-07T08:56:10;21.60;99.90
11107;DHT22;5607;48.302;14.294;2023-05-07T08:58:57;21.60;99.90
11107;DHT22;5607;48.302;14.294;2023-05-07T09:01:45;21.70;99.90
11107;DHT22;5607;48.302;14.294;2023-05-07T09:04:31;21.90;99.90
11107;DHT22;5607;48.302;14.294;2023-05-07T09:07:18;21.90;99.90
11107;DHT22;5607;48.302;14.294;2023-05-07T09:10:05;21.90;99.90
11107;DHT22;5607;48.302;14.294;2023-05-07T09:12:52;22.00;99.90
11107;DHT22;5607;48.302;14.294;2023-05-07T09:15:38;22.00;99.90
11107;DHT22;5607;48.302;14.294;2023-05-07T09:18:24;22.00;99.90
11107;DHT22;5607;48.302;14.294;2023-05-07T09:21:14;22.00;99.90
11107;DHT22;5607;48.302;14.294;2023-05-07T09:24:01;21.90;99.90
11107;DHT22;5607;48.302;14.294;2023-05-07T09:26:47;22.00;99.90
11107;DHT22;5607;48.302;14.294;2023-05-07T09:29:33;22.00;99.90
11107;DHT22;5607;48.302;14.294;2023-05-07T09:32:21;22.00;99.90
11107;DHT22;5607;48.302;14.294;2023-05-07T09:35:14;22.10;99.90
11107;DHT22;5607;48.302;14.294;2023-05-07T09:38:00;22.10;99.90
11107;DHT22;5607;48.302;14.294;2023-05-07T09:40:47;22.10;99.90
11107;DHT22;5607;48.302;14.294;2023-05-07T09:43:37;22.00;99.90
11107;DHT22;5607;48.302;14.294;2023-05-07T09:46:30;22.10;99.90
11107;DHT22;5607;48.302;14.294;2023-05-07T09:49:21;22.20;99.90
11107;DHT22;5607;48.302;14.294;2023-05-07T09:52:07;22.10;99.90
11107;DHT22;5607;48.302;14.294;2023-05-07T09:54:56;22.10;99.90
11107;DHT22;5607;48.302;14.294;2023-05-07T09:57:45;22.00;99.90
11107;DHT22;5607;48.302;14.294;2023-05-07T10:00:32;22.00;99.90
11107;DHT22;5607;48.302;14.294;2023-05-07T10:03:18;22.30;99.90
11107;DHT22;5607;48.302;14.294;2023-05-07T10:06:05;22.20;99.90
11107;DHT22;5607;48.302;14.294;2023-05-07T10:08:52;22.30;99.90
11107;DHT22;5607;48.302;14.294;2023-05-07T10:11:38;22.40;99.90
11107;DHT22;5607;48.302;14.294;2023-05-07T10:14:25;22.40;99.90
11107;DHT22;5607;48.302;14.294;2023-05-07T10:17:13;22.50;99.90
11107;DHT22;5607;48.302;14.294;2023-05-07T10:20:04;22.60;99.90
11107;DHT22;5607;48.302;14.294;2023-05-07T10:22:52;22.60;99.90
11107;DHT22;5607;48.302;14.294;2023-05-07T10:25:40;22.70;99.90
11107;DHT22;5607;48.302;14.294;2023-05-07T10:28:27;22.80;99.90
11107;DHT22;5607;48.302;14.294;2023-05-07T10:34:02;23.10;99.90
11107;DHT22;5607;48.302;14.294;2023-05-07T10:36:53;23.20;99.90
11107;DHT22;5607;48.302;14.294;2023-05-07T10:39:40;23.30;99.90
11107;DHT22;5607;48.302;14.294;2023-05-07T10:42:27;23.50;99.90
11107;DHT22;5607;48.302;14.294;2023-05-07T10:45:13;23.60;99.90
11107;DHT22;5607;48.302;14.294;2023-05-07T10:50:52;23.90;99.90
11107;DHT22;5607;48.302;14.294;2023-05-07T10:54:31;23.90;99.90
11107;DHT22;5607;48.302;14.294;2023-05-07T11:05:47;24.10;99.90
11107;DHT22;5607;48.302;14.294;2023-05-07T11:08:55;23.70;99.90
11107;DHT22;5607;48.302;14.294;2023-05-07T11:11:48;23.70;99.90
11107;DHT22;5607;48.302;14.294;2023-05-07T11:17:26;23.70;99.90
11107;DHT22;5607;48.302;14.294;2023-05-07T11:20:13;23.80;99.90
11107;DHT22;5607;48.302;14.294;2023-05-07T11:22:59;24.10;99.90
11107;DHT22;5607;48.302;14.294;2023-05-07T11:25:45;24.30;99.90
11107;DHT22;5607;48.302;14.294;2023-05-07T11:28:37;24.50;99.90
11107;DHT22;5607;48.302;14.294;2023-05-07T11:31:24;24.70;99.90
11107;DHT22;5607;48.302;14.294;2023-05-07T11:34:11;24.70;99.90
11107;DHT22;5607;48.302;14.294;2023-05-07T11:36:58;24.60;99.90
11107;DHT22;5607;48.302;14.294;2023-05-07T11:39:44;24.60;99.90
11107;DHT22;5607;48.302;14.294;2023-05-07T11:42:31;24.50;99.90
11107;DHT22;5607;48.302;14.294;2023-05-07T11:45:25;24.70;99.90
11107;DHT22;5607;48.302;14.294;2023-05-07T11:48:14;25.20;99.90
11107;DHT22;5607;48.302;14.294;2023-05-07T11:51:01;25.50;99.90
11107;DHT22;5607;48.302;14.294;2023-05-07T11:53:48;25.70;99.90
11107;DHT22;5607;48.302;14.294;2023-05-07T11:56:34;25.70;99.90
11107;DHT22;5607;48.302;14.294;2023-05-07T11:59:24;25.80;99.90
11107;DHT22;5607;48.302;14.294;2023-05-07T12:02:11;25.80;99.90
11107;DHT22;5607;48.302;14.294;2023-05-07T12:05:00;25.50;99.90
11107;DHT22;5607;48.302;14.294;2023-05-07T12:07:46;25.10;99.90
11107;DHT22;5607;48.302;14.294;2023-05-07T12:10:32;24.80;99.90
11107;DHT22;5607;48.302;14.294;2023-05-07T12:13:19;24.50;99.90
11107;DHT22;5607;48.302;14.294;2023-05-07T12:16:05;24.30;99.90
11107;DHT22;5607;48.302;14.294;2023-05-07T12:18:52;24.00;99.90
11107;DHT22;5607;48.302;14.294;2023-05-07T12:21:40;23.70;99.90
11107;DHT22;5607;48.302;14.294;2023-05-07T12:24:27;23.50;99.90
11107;DHT22;5607;48.302;14.294;2023-05-07T12:27:14;23.30;99.90
11107;DHT22;5607;48.302;14.294;2023-05-07T12:30:00;23.20;99.90
11107;DHT22;5607;48.302;14.294;2023-05-07T12:32:46;23.10;99.90
11107;DHT22;5607;48.302;14.294;2023-05-07T12:35:37;23.10;99.90
11107;DHT22;5607;48.302;14.294;2023-05-07T12:38:25;23.40;99.90
11107;DHT22;5607;48.302;14.294;2023-05-07T12:41:11;23.70;99.90
11107;DHT22;5607;48.302;14.294;2023-05-07T12:44:01;24.00;99.90
11107;DHT22;5607;48.302;14.294;2023-05-07T12:46:50;24.40;99.90
11107;DHT22;5607;48.302;14.294;2023-05-07T12:49:36;24.90;99.90
11107;DHT22;5607;48.302;14.294;2023-05-07T12:52:24;25.10;99.90
11107;DHT22;5607;48.302;14.294;2023-05-07T12:55:12;25.40;99.90
11107;DHT22;5607;48.302;14.294;2023-05-07T12:58:00;25.80;99.90
11107;DHT22;5607;48.302;14.294;2023-05-07T13:00:48;26.20;99.90
11107;DHT22;5607;48.302;14.294;2023-05-07T13:03:34;26.30;99.90
11107;DHT22;5607;48.302;14.294;2023-05-07T13:06:21;26.70;99.90
11107;DHT22;5607;48.302;14.294;2023-05-07T13:09:07;26.90;99.90
11107;DHT22;5607;48.302;14.294;2023-05-07T13:11:53;27.20;99.90
11107;DHT22;5607;48.302;14.294;2023-05-07T13:14:40;27.10;99.90
11107;DHT22;5607;48.302;14.294;2023-05-07T13:17:26;26.80;99.90
11107;DHT22;5607;48.302;14.294;2023-05-07T13:20:12;26.70;99.90
11107;DHT22;5607;48.302;14.294;2023-05-07T13:22:59;26.90;99.90
11107;DHT22;5607;48.302;14.294;2023-05-07T13:25:48;27.00;99.90
11107;DHT22;5607;48.302;14.294;2023-05-07T13:28:34;27.10;99.90
11107;DHT22;5607;48.302;14.294;2023-05-07T13:31:21;26.60;99.90
11107;DHT22;5607;48.302;14.294;2023-05-07T13:34:07;26.00;99.90
11107;DHT22;5607;48.302;14.294;2023-05-07T13:36:53;25.40;99.90
11107;DHT22;5607;48.302;14.294;2023-05-07T13:39:39;24.90;99.90
11107;DHT22;5607;48.302;14.294;2023-05-07T13:42:26;24.80;99.90
11107;DHT22;5607;48.302;14.294;2023-05-07T13:45:13;24.80;99.90
11107;DHT22;5607;48.302;14.294;2023-05-07T13:48:00;24.80;99.90
11107;DHT22;5607;48.302;14.294;2023-05-07T13:50:46;25.10;99.90
11107;DHT22;5607;48.302;14.294;2023-05-07T13:53:32;26.20;99.90
11107;DHT22;5607;48.302;14.294;2023-05-07T13:56:18;27.70;99.90
11107;DHT22;5607;48.302;14.294;2023-05-07T13:59:07;28.80;99.90
11107;DHT22;5607;48.302;14.294;2023-05-07T14:01:53;29.20;99.90
11107;DHT22;5607;48.302;14.294;2023-05-07T14:04:40;29.60;99.90
11107;DHT22;5607;48.302;14.294;2023-05-07T14:07:27;30.20;99.90
11107;DHT22;5607;48.302;14.294;2023-05-07T14:10:14;30.40;99.90
11107;DHT22;5607;48.302;14.294;2023-05-07T14:13:00;31.40;99.90
11107;DHT22;5607;48.302;14.294;2023-05-07T14:15:46;33.20;99.90
11107;DHT22;5607;48.302;14.294;2023-05-07T14:18:34;34.60;99.90
11107;DHT22;5607;48.302;14.294;2023-05-07T14:21:23;34.70;99.90
11107;DHT22;5607;48.302;14.294;2023-05-07T14:24:09;35.70;99.90
11107;DHT22;5607;48.302;14.294;2023-05-07T14:26:56;36.30;99.90
11107;DHT22;5607;48.302;14.294;2023-05-07T14:29:42;34.00;99.90
11107;DHT22;5607;48.302;14.294;2023-05-07T14:32:29;32.10;99.90
11107;DHT22;5607;48.302;14.294;2023-05-07T14:35:15;30.20;99.90
11107;DHT22;5607;48.302;14.294;2023-05-07T14:38:01;28.60;99.90
11107;DHT22;5607;48.302;14.294;2023-05-07T14:40:48;27.90;99.90
11107;DHT22;5607;48.302;14.294;2023-05-07T14:43:34;28.40;99.90
11107;DHT22;5607;48.302;14.294;2023-05-07T14:46:20;30.60;99.90
11107;DHT22;5607;48.302;14.294;2023-05-07T14:49:07;31.40;99.90
11107;DHT22;5607;48.302;14.294;2023-05-07T14:52:02;31.50;99.90
11107;DHT22;5607;48.302;14.294;2023-05-07T14:54:50;30.60;99.90
11107;DHT22;5607;48.302;14.294;2023-05-07T14:57:36;28.90;99.90
11107;DHT22;5607;48.302;14.294;2023-05-07T15:00:22;27.50;99.90
11107;DHT22;5607;48.302;14.294;2023-05-07T15:03:09;26.60;99.90
11107;DHT22;5607;48.302;14.294;2023-05-07T15:05:59;25.90;99.90
11107;DHT22;5607;48.302;14.294;2023-05-07T15:08:45;25.40;99.90
11107;DHT22;5607;48.302;14.294;2023-05-07T15:11:32;25.10;99.90
11107;DHT22;5607;48.302;14.294;2023-05-07T15:14:19;25.00;99.90
11107;DHT22;5607;48.302;14.294;2023-05-07T15:17:07;24.80;99.90
11107;DHT22;5607;48.302;14.294;2023-05-07T15:19:53;24.90;99.90
11107;DHT22;5607;48.302;14.294;2023-05-07T15:22:40;25.20;99.90
11107;DHT22;5607;48.302;14.294;2023-05-07T15:25:27;25.30;99.90
11107;DHT22;5607;48.302;14.294;2023-05-07T15:28:14;25.10;99.90
11107;DHT22;5607;48.302;14.294;2023-05-07T15:31:02;24.70;99.90
11107;DHT22;5607;48.302;14.294;2023-05-07T15:33:49;24.40;99.90
11107;DHT22;5607;48.302;14.294;2023-05-07T15:36:37;23.90;99.90
11107;DHT22;5607;48.302;14.294;2023-05-07T15:39:23;23.70;99.90
11107;DHT22;5607;48.302;14.294;2023-05-07T15:42:10;23.70;99.90
11107;DHT22;5607;48.302;14.294;2023-05-07T15:44:56;23.70;99.90
11107;DHT22;5607;48.302;14.294;2023-05-07T15:47:43;23.70;99.90
11107;DHT22;5607;48.302;14.294;2023-05-07T15:53:37;23.40;99.90
11107;DHT22;5607;48.302;14.294;2023-05-07T15:56:23;23.20;99.90
11107;DHT22;5607;48.302;14.294;2023-05-07T15:59:10;23.00;99.90
11107;DHT22;5607;48.302;14.294;2023-05-07T16:01:57;22.90;99.90
11107;DHT22;5607;48.302;14.294;2023-05-07T16:04:44;22.80;99.90
11107;DHT22;5607;48.302;14.294;2023-05-07T16:07:30;22.70;99.90
11107;DHT22;5607;48.302;14.294;2023-05-07T16:10:16;22.60;99.90
11107;DHT22;5607;48.302;14.294;2023-05-07T16:13:03;22.40;99.90
11107;DHT22;5607;48.302;14.294;2023-05-07T16:15:51;22.30;99.90
11107;DHT22;5607;48.302;14.294;2023-05-07T16:18:40;22.20;99.90
11107;DHT22;5607;48.302;14.294;2023-05-07T16:21:26;22.20;99.90
11107;DHT22;5607;48.302;14.294;2023-05-07T16:24:14;22.20;99.90
11107;DHT22;5607;48.302;14.294;2023-05-07T16:27:01;22.20;99.90
11107;DHT22;5607;48.302;14.294;2023-05-07T16:29:47;22.20;99.90
11107;DHT22;5607;48.302;14.294;2023-05-07T16:32:34;22.30;99.90
11107;DHT22;5607;48.302;14.294;2023-05-07T16:35:21;22.30;99.90
11107;DHT22;5607;48.302;14.294;2023-05-07T16:38:08;22.50;99.90
11107;DHT22;5607;48.302;14.294;2023-05-07T16:40:57;22.60;99.90
11107;DHT22;5607;48.302;14.294;2023-05-07T16:43:43;22.60;99.90
11107;DHT22;5607;48.302;14.294;2023-05-07T16:46:30;22.50;99.90
11107;DHT22;5607;48.302;14.294;2023-05-07T16:49:17;22.40;99.90
11107;DHT22;5607;48.302;14.294;2023-05-07T16:52:03;22.20;99.90
11107;DHT22;5607;48.302;14.294;2023-05-07T16:54:50;22.10;99.90
11107;DHT22;5607;48.302;14.294;2023-05-07T16:57:37;21.90;99.90
11107;DHT22;5607;48.302;14.294;2023-05-07T17:00:23;21.90;99.90
11107;DHT22;5607;48.302;14.294;2023-05-07T17:03:10;21.90;99.90
11107;DHT22;5607;48.302;14.294;2023-05-07T17:05:56;21.80;99.90
11107;DHT22;5607;48.302;14.294;2023-05-07T17:08:42;21.70;99.90
11107;DHT22;5607;48.302;14.294;2023-05-07T17:11:29;21.60;99.90
11107;DHT22;5607;48.302;14.294;2023-05-07T17:14:18;21.60;99.90
11107;DHT22;5607;48.302;14.294;2023-05-07T17:17:04;21.50;99.90
11107;DHT22;5607;48.302;14.294;2023-05-07T17:19:51;21.30;99.90
11107;DHT22;5607;48.302;14.294;2023-05-07T17:22:37;21.00;99.90
11107;DHT22;5607;48.302;14.294;2023-05-07T17:25:23;20.80;99.90
11107;DHT22;5607;48.302;14.294;2023-05-07T17:28:10;20.90;99.90
11107;DHT22;5607;48.302;14.294;2023-05-07T17:30:56;20.80;99.90
11107;DHT22;5607;48.302;14.294;2023-05-07T17:33:42;20.70;99.90
11107;DHT22;5607;48.302;14.294;2023-05-07T17:36:29;20.60;99.90
11107;DHT22;5607;48.302;14.294;2023-05-07T17:39:15;20.60;99.90
11107;DHT22;5607;48.302;14.294;2023-05-07T17:42:01;20.50;99.90
11107;DHT22;5607;48.302;14.294;2023-05-07T17:44:47;20.40;99.90
11107;DHT22;5607;48.302;14.294;2023-05-07T17:47:34;20.30;99.90
11107;DHT22;5607;48.302;14.294;2023-05-07T17:50:20;20.20;99.90
11107;DHT22;5607;48.302;14.294;2023-05-07T17:53:06;20.20;99.90
11107;DHT22;5607;48.302;14.294;2023-05-07T17:55:54;20.10;99.90
11107;DHT22;5607;48.302;14.294;2023-05-07T17:58:41;20.10;99.90
11107;DHT22;5607;48.302;14.294;2023-05-07T18:01:27;20.00;99.90